sensor_id;sensor_type;location;lat;lon;timestamp;temperature;humidity
46037;DHT22;31769;49.304;8.428;2022-11-15T00:02:57;10.70;99.90
46037;DHT22;31769;49.304;8.428;2022-11-15T00:06:17;10.60;99.90
46037;DHT22;31769;49.304;8.428;2022-11-15T00:09:36;10.60;99.90
46037;DHT22;31769;49.304;8.428;2022-11-15T00:12:55;10.70;99.90
46037;DHT22;31769;49.304;8.428;2022-11-15T00:16:14;10.60;99.90
46037;DHT22;31769;49.304;8.428;2022-11-15T00:19:33;10.60;99.90
46037;DHT22;31769;49.304;8.428;2022-11-15T00:22:59;10.60;99.90
46037;DHT22;31769;49.304;8.428;2022-11-15T00:26:18;10.50;99.90
46037;DHT22;31769;49.304;8.428;2022-11-15T00:29:37;10.60;99.90
46037;DHT22;31769;49.304;8.428;2022-11-15T00:33:02;10.60;99.90
46037;DHT22;31769;49.304;8.428;2022-11-15T00:36:22;10.70;99.90
46037;DHT22;31769;49.304;8.428;2022-11-15T00:39:41;10.60;99.90
46037;DHT22;31769;49.304;8.428;2022-11-15T00:43:00;10.60;99.90
46037;DHT22;31769;49.304;8.428;2022-11-15T00:46:19;10.60;99.90
46037;DHT22;31769;49.304;8.428;2022-11-15T00:49:39;10.60;99.90
46037;DHT22;31769;49.304;8.428;2022-11-15T00:52:58;10.60;99.90
46037;DHT22;31769;49.304;8.428;2022-11-15T00:56:17;10.60;99.90
46037;DHT22;31769;49.304;8.428;2022-11-15T00:59:36;10.60;99.90
46037;DHT22;31769;49.304;8.428;2022-11-15T01:02:55;10.60;99.90
46037;DHT22;31769;49.304;8.428;2022-11-15T01:06:14;10.60;99.90
46037;DHT22;31769;49.304;8.428;2022-11-15T01:09:33;10.60;99.90
46037;DHT22;31769;49.304;8.428;2022-11-15T01:12:52;10.50;99.90
46037;DHT22;31769;49.304;8.428;2022-11-15T01:16:14;10.50;99.90
46037;DHT22;31769;49.304;8.428;2022-11-15T01:19:35;10.50;99.90
46037;DHT22;31769;49.304;8.428;2022-11-15T01:22:54;10.50;99.90
46037;DHT22;31769;49.304;8.428;2022-11-15T01:26:14;10.50;99.90
46037;DHT22;31769;49.304;8.428;2022-11-15T01:29:34;10.40;99.90
46037;DHT22;31769;49.304;8.428;2022-11-15T01:32:53;10.40;99.90
46037;DHT22;31769;49.304;8.428;2022-11-15T01:36:16;10.40;99.90
46037;DHT22;31769;49.304;8.428;2022-11-15T01:39:35;10.40;99.90
46037;DHT22;31769;49.304;8.428;2022-11-15T01:42:54;10.50;99.90
46037;DHT22;31769;49.304;8.428;2022-11-15T01:46:25;10.50;99.90
46037;DHT22;31769;49.304;8.428;2022-11-15T01:50:15;10.60;99.90
46037;DHT22;31769;49.304;8.428;2022-11-15T01:53:36;10.60;99.90
46037;DHT22;31769;49.304;8.428;2022-11-15T01:57:01;10.60;99.90
46037;DHT22;31769;49.304;8.428;2022-11-15T02:00:22;10.60;99.90
46037;DHT22;31769;49.304;8.428;2022-11-15T02:03:52;10.60;99.90
46037;DHT22;31769;49.304;8.428;2022-11-15T02:07:17;10.60;99.90
46037;DHT22;31769;49.304;8.428;2022-11-15T02:10:37;10.60;99.90
46037;DHT22;31769;49.304;8.428;2022-11-15T02:13:57;10.60;99.90
46037;DHT22;31769;49.304;8.428;2022-11-15T02:17:36;10.70;99.90
46037;DHT22;31769;49.304;8.428;2022-11-15T02:21:01;10.70;99.90
46037;DHT22;31769;49.304;8.428;2022-11-15T02:32:42;10.70;99.90
46037;DHT22;31769;49.304;8.428;2022-11-15T02:36:15;10.70;99.90
46037;DHT22;31769;49.304;8.428;2022-11-15T02:43:36;10.60;99.90
46037;DHT22;31769;49.304;8.428;2022-11-15T02:47:16;10.60;99.90
46037;DHT22;31769;49.304;8.428;2022-11-15T02:50:37;10.60;99.90
46037;DHT22;31769;49.304;8.428;2022-11-15T02:53:56;10.50;99.90
46037;DHT22;31769;49.304;8.428;2022-11-15T02:57:17;10.50;99.90
46037;DHT22;31769;49.304;8.428;2022-11-15T03:00:50;10.50;99.90
46037;DHT22;31769;49.304;8.428;2022-11-15T03:04:44;10.40;99.90
46037;DHT22;31769;49.304;8.428;2022-11-15T03:11:43;10.40;99.90
46037;DHT22;31769;49.304;8.428;2022-11-15T03:15:12;10.40;99.90
46037;DHT22;31769;49.304;8.428;2022-11-15T03:18:43;10.40;99.90
46037;DHT22;31769;49.304;8.428;2022-11-15T03:22:06;10.40;99.90
46037;DHT22;31769;49.304;8.428;2022-11-15T03:25:28;10.40;99.90
46037;DHT22;31769;49.304;8.428;2022-11-15T03:28:58;10.50;99.90
46037;DHT22;31769;49.304;8.428;2022-11-15T03:32:25;10.40;99.90
46037;DHT22;31769;49.304;8.428;2022-11-15T03:35:46;10.40;99.90
46037;DHT22;31769;49.304;8.428;2022-11-15T03:39:07;10.40;99.90
46037;DHT22;31769;49.304;8.428;2022-11-15T03:42:36;10.40;99.90
46037;DHT22;31769;49.304;8.428;2022-11-15T03:46:02;10.40;99.90
46037;DHT22;31769;49.304;8.428;2022-11-15T03:49:28;10.50;99.90
46037;DHT22;31769;49.304;8.428;2022-11-15T03:52:49;10.50;99.90
46037;DHT22;31769;49.304;8.428;2022-11-15T03:56:09;10.50;99.90
46037;DHT22;31769;49.304;8.428;2022-11-15T03:59:28;10.60;99.90
46037;DHT22;31769;49.304;8.428;2022-11-15T04:02:47;10.60;99.90
46037;DHT22;31769;49.304;8.428;2022-11-15T04:06:06;10.70;99.90
46037;DHT22;31769;49.304;8.428;2022-11-15T04:09:25;10.60;99.90
46037;DHT22;31769;49.304;8.428;2022-11-15T04:12:45;10.70;99.90
46037;DHT22;31769;49.304;8.428;2022-11-15T04:16:06;10.70;99.90
46037;DHT22;31769;49.304;8.428;2022-11-15T04:19:25;10.70;99.90
46037;DHT22;31769;49.304;8.428;2022-11-15T04:23:23;10.70;99.90
46037;DHT22;31769;49.304;8.428;2022-11-15T04:27:01;10.80;99.90
46037;DHT22;31769;49.304;8.428;2022-11-15T04:30:21;10.70;99.90
46037;DHT22;31769;49.304;8.428;2022-11-15T04:33:40;10.70;99.90
46037;DHT22;31769;49.304;8.428;2022-11-15T04:36:59;10.70;99.90
46037;DHT22;31769;49.304;8.428;2022-11-15T04:40:31;10.60;99.90
46037;DHT22;31769;49.304;8.428;2022-11-15T04:43:50;10.70;99.90
46037;DHT22;31769;49.304;8.428;2022-11-15T04:47:09;10.70;99.90
46037;DHT22;31769;49.304;8.428;2022-11-15T04:50:28;10.70;99.90
46037;DHT22;31769;49.304;8.428;2022-11-15T04:53:47;10.60;99.90
46037;DHT22;31769;49.304;8.428;2022-11-15T04:57:07;10.70;99.90
46037;DHT22;31769;49.304;8.428;2022-11-15T05:00:27;10.70;99.90
46037;DHT22;31769;49.304;8.428;2022-11-15T05:03:46;10.70;99.90
46037;DHT22;31769;49.304;8.428;2022-11-15T05:07:24;10.70;99.90
46037;DHT22;31769;49.304;8.428;2022-11-15T05:10:43;10.60;99.90
46037;DHT22;31769;49.304;8.428;2022-11-15T05:14:02;10.60;99.90
46037;DHT22;31769;49.304;8.428;2022-11-15T05:17:21;10.60;99.90
46037;DHT22;31769;49.304;8.428;2022-11-15T05:20:41;10.70;99.90
46037;DHT22;31769;49.304;8.428;2022-11-15T05:24:00;10.60;99.90
46037;DHT22;31769;49.304;8.428;2022-11-15T05:27:19;10.70;99.90
46037;DHT22;31769;49.304;8.428;2022-11-15T05:30:38;10.70;99.90
46037;DHT22;31769;49.304;8.428;2022-11-15T05:34:04;10.70;99.90
46037;DHT22;31769;49.304;8.428;2022-11-15T05:37:24;10.60;99.90
46037;DHT22;31769;49.304;8.428;2022-11-15T05:40:43;10.50;99.90
46037;DHT22;31769;49.304;8.428;2022-11-15T05:44:05;10.40;99.90
46037;DHT22;31769;49.304;8.428;2022-11-15T05:47:28;10.40;99.90
46037;DHT22;31769;49.304;8.428;2022-11-15T05:50:48;10.40;99.90
46037;DHT22;31769;49.304;8.428;2022-11-15T05:54:08;10.50;99.90
46037;DHT22;31769;49.304;8.428;2022-11-15T05:57:27;10.50;99.90
46037;DHT22;31769;49.304;8.428;2022-11-15T06:00:46;10.50;99.90
46037;DHT22;31769;49.304;8.428;2022-11-15T06:04:05;10.50;99.90
46037;DHT22;31769;49.304;8.428;2022-11-15T06:07:25;10.50;99.90
46037;DHT22;31769;49.304;8.428;2022-11-15T06:10:44;10.40;99.90
46037;DHT22;31769;49.304;8.428;2022-11-15T06:14:04;10.30;99.90
46037;DHT22;31769;49.304;8.428;2022-11-15T06:17:24;10.40;99.90
46037;DHT22;31769;49.304;8.428;2022-11-15T06:20:43;10.40;99.90
46037;DHT22;31769;49.304;8.428;2022-11-15T06:24:02;10.40;99.90
46037;DHT22;31769;49.304;8.428;2022-11-15T06:27:21;10.30;99.90
46037;DHT22;31769;49.304;8.428;2022-11-15T06:30:40;10.30;99.90
46037;DHT22;31769;49.304;8.428;2022-11-15T06:34:00;10.40;99.90
46037;DHT22;31769;49.304;8.428;2022-11-15T06:37:19;10.40;99.90
46037;DHT22;31769;49.304;8.428;2022-11-15T06:40:39;10.50;99.90
46037;DHT22;31769;49.304;8.428;2022-11-15T06:43:58;10.50;99.90
46037;DHT22;31769;49.304;8.428;2022-11-15T06:47:17;10.50;99.90
46037;DHT22;31769;49.304;8.428;2022-11-15T06:50:36;10.60;99.90
46037;DHT22;31769;49.304;8.428;2022-11-15T06:53:55;10.60;99.90
46037;DHT22;31769;49.304;8.428;2022-11-15T06:57:15;10.60;99.90
46037;DHT22;31769;49.304;8.428;2022-11-15T07:00:34;10.70;99.90
46037;DHT22;31769;49.304;8.428;2022-11-15T07:03:53;10.70;99.90
46037;DHT22;31769;49.304;8.428;2022-11-15T07:07:12;10.80;99.90
46037;DHT22;31769;49.304;8.428;2022-11-15T07:10:31;10.80;99.90
46037;DHT22;31769;49.304;8.428;2022-11-15T07:13:50;10.80;99.90
46037;DHT22;31769;49.304;8.428;2022-11-15T07:17:09;10.90;99.90
46037;DHT22;31769;49.304;8.428;2022-11-15T07:20:28;10.90;99.90
46037;DHT22;31769;49.304;8.428;2022-11-15T07:23:47;10.90;99.90
46037;DHT22;31769;49.304;8.428;2022-11-15T07:27:07;10.90;99.90
46037;DHT22;31769;49.304;8.428;2022-11-15T07:30:26;10.80;99.90
46037;DHT22;31769;49.304;8.428;2022-11-15T07:33:46;10.80;99.90
46037;DHT22;31769;49.304;8.428;2022-11-15T07:37:05;10.80;99.90
46037;DHT22;31769;49.304;8.428;2022-11-15T07:40:26;10.90;99.90
46037;DHT22;31769;49.304;8.428;2022-11-15T07:43:45;11.00;99.90
46037;DHT22;31769;49.304;8.428;2022-11-15T07:47:05;11.00;99.90
46037;DHT22;31769;49.304;8.428;2022-11-15T07:50:24;11.10;99.90
46037;DHT22;31769;49.304;8.428;2022-11-15T07:53:44;11.10;99.90
46037;DHT22;31769;49.304;8.428;2022-11-15T07:57:04;11.10;99.90
46037;DHT22;31769;49.304;8.428;2022-11-15T08:00:23;11.20;99.90
46037;DHT22;31769;49.304;8.428;2022-11-15T08:03:42;11.30;99.90
46037;DHT22;31769;49.304;8.428;2022-11-15T08:07:01;11.30;99.90
46037;DHT22;31769;49.304;8.428;2022-11-15T08:10:20;11.40;99.90
46037;DHT22;31769;49.304;8.428;2022-11-15T08:13:40;11.50;99.90
46037;DHT22;31769;49.304;8.428;2022-11-15T08:16:59;11.60;99.90
46037;DHT22;31769;49.304;8.428;2022-11-15T08:20:18;11.60;99.90
46037;DHT22;31769;49.304;8.428;2022-11-15T08:23:38;11.70;99.90
46037;DHT22;31769;49.304;8.428;2022-11-15T08:26:57;11.70;99.90
46037;DHT22;31769;49.304;8.428;2022-11-15T08:30:16;11.80;99.90
46037;DHT22;31769;49.304;8.428;2022-11-15T08:33:36;11.90;99.90
46037;DHT22;31769;49.304;8.428;2022-11-15T08:36:55;11.80;99.90
46037;DHT22;31769;49.304;8.428;2022-11-15T08:40:15;11.80;99.90
46037;DHT22;31769;49.304;8.428;2022-11-15T08:43:34;11.90;99.90
46037;DHT22;31769;49.304;8.428;2022-11-15T08:46:53;11.90;99.90
46037;DHT22;31769;49.304;8.428;2022-11-15T08:50:13;12.00;99.90
46037;DHT22;31769;49.304;8.428;2022-11-15T08:53:33;12.00;99.90
46037;DHT22;31769;49.304;8.428;2022-11-15T08:56:53;12.10;99.90
46037;DHT22;31769;49.304;8.428;2022-11-15T09:00:12;12.10;99.90
46037;DHT22;31769;49.304;8.428;2022-11-15T09:03:32;12.00;99.90
46037;DHT22;31769;49.304;8.428;2022-11-15T09:06:51;11.90;99.90
46037;DHT22;31769;49.304;8.428;2022-11-15T09:10:10;11.90;99.90
46037;DHT22;31769;49.304;8.428;2022-11-15T09:13:29;12.00;99.90
46037;DHT22;31769;49.304;8.428;2022-11-15T09:16:48;12.10;99.90
46037;DHT22;31769;49.304;8.428;2022-11-15T09:20:08;12.20;99.90
46037;DHT22;31769;49.304;8.428;2022-11-15T09:23:28;12.40;99.90
46037;DHT22;31769;49.304;8.428;2022-11-15T09:26:50;12.60;99.90
46037;DHT22;31769;49.304;8.428;2022-11-15T09:30:10;12.70;99.90
46037;DHT22;31769;49.304;8.428;2022-11-15T09:33:29;12.90;99.90
46037;DHT22;31769;49.304;8.428;2022-11-15T09:36:48;12.90;99.90
46037;DHT22;31769;49.304;8.428;2022-11-15T09:40:15;13.00;99.90
46037;DHT22;31769;49.304;8.428;2022-11-15T09:51:24;13.30;99.90
46037;DHT22;31769;49.304;8.428;2022-11-15T09:54:34;13.40;99.90
46037;DHT22;31769;49.304;8.428;2022-11-15T09:57:55;13.40;99.90
46037;DHT22;31769;49.304;8.428;2022-11-15T10:01:00;13.40;99.90
46037;DHT22;31769;49.304;8.428;2022-11-15T10:04:03;13.40;99.90
46037;DHT22;31769;49.304;8.428;2022-11-15T10:07:46;13.40;99.90
46037;DHT22;31769;49.304;8.428;2022-11-15T10:10:55;13.40;99.90
46037;DHT22;31769;49.304;8.428;2022-11-15T10:14:01;13.40;99.90
46037;DHT22;31769;49.304;8.428;2022-11-15T10:23:17;13.30;99.90
46037;DHT22;31769;49.304;8.428;2022-11-15T10:26:18;13.30;99.90
46037;DHT22;31769;49.304;8.428;2022-11-15T10:29:24;13.40;99.90
46037;DHT22;31769;49.304;8.428;2022-11-15T10:32:25;13.40;99.90
46037;DHT22;31769;49.304;8.428;2022-11-15T10:35:28;13.40;99.90
46037;DHT22;31769;49.304;8.428;2022-11-15T10:38:29;13.30;99.90
46037;DHT22;31769;49.304;8.428;2022-11-15T10:41:34;13.20;99.90
46037;DHT22;31769;49.304;8.428;2022-11-15T10:44:42;13.20;99.90
46037;DHT22;31769;49.304;8.428;2022-11-15T10:47:43;13.20;99.90
46037;DHT22;31769;49.304;8.428;2022-11-15T10:50:45;13.10;99.90
46037;DHT22;31769;49.304;8.428;2022-11-15T10:53:46;13.20;99.90
46037;DHT22;31769;49.304;8.428;2022-11-15T10:56:53;13.30;99.90
46037;DHT22;31769;49.304;8.428;2022-11-15T10:59:56;13.40;99.90
46037;DHT22;31769;49.304;8.428;2022-11-15T11:03:06;13.60;99.90
46037;DHT22;31769;49.304;8.428;2022-11-15T11:06:19;13.80;99.90
46037;DHT22;31769;49.304;8.428;2022-11-15T11:12:35;14.40;99.90
46037;DHT22;31769;49.304;8.428;2022-11-15T11:15:36;14.70;99.90
46037;DHT22;31769;49.304;8.428;2022-11-15T11:31:58;16.20;99.90
46037;DHT22;31769;49.304;8.428;2022-11-15T11:35:26;16.40;99.90
46037;DHT22;31769;49.304;8.428;2022-11-15T11:48:50;16.30;99.90
46037;DHT22;31769;49.304;8.428;2022-11-15T11:58:30;16.30;99.90
46037;DHT22;31769;49.304;8.428;2022-11-15T12:01:37;16.20;99.90
46037;DHT22;31769;49.304;8.428;2022-11-15T12:04:45;16.00;99.90
46037;DHT22;31769;49.304;8.428;2022-11-15T12:07:46;16.00;99.90
46037;DHT22;31769;49.304;8.428;2022-11-15T12:17:29;15.90;99.90
46037;DHT22;31769;49.304;8.428;2022-11-15T12:20:36;15.80;99.90
46037;DHT22;31769;49.304;8.428;2022-11-15T12:23:43;15.60;99.90
46037;DHT22;31769;49.304;8.428;2022-11-15T12:26:58;15.60;99.90
46037;DHT22;31769;49.304;8.428;2022-11-15T12:30:12;15.50;99.90
46037;DHT22;31769;49.304;8.428;2022-11-15T12:33:54;15.40;99.90
46037;DHT22;31769;49.304;8.428;2022-11-15T12:36:51;15.30;99.90
46037;DHT22;31769;49.304;8.428;2022-11-15T12:56:21;15.00;99.90
46037;DHT22;31769;49.304;8.428;2022-11-15T13:02:48;15.00;99.90
46037;DHT22;31769;49.304;8.428;2022-11-15T13:05:56;15.10;99.90
46037;DHT22;31769;49.304;8.428;2022-11-15T13:08:58;15.20;99.90
46037;DHT22;31769;49.304;8.428;2022-11-15T13:12:00;15.30;99.90
46037;DHT22;31769;49.304;8.428;2022-11-15T13:21:24;15.20;99.90
46037;DHT22;31769;49.304;8.428;2022-11-15T13:24:43;15.20;99.90
46037;DHT22;31769;49.304;8.428;2022-11-15T13:27:47;15.10;99.90
46037;DHT22;31769;49.304;8.428;2022-11-15T13:30:52;15.10;99.90
46037;DHT22;31769;49.304;8.428;2022-11-15T13:33:59;15.10;99.90
46037;DHT22;31769;49.304;8.428;2022-11-15T13:37:02;15.20;99.90
46037;DHT22;31769;49.304;8.428;2022-11-15T13:43:34;15.10;99.90
46037;DHT22;31769;49.304;8.428;2022-11-15T13:46:35;15.00;99.90
46037;DHT22;31769;49.304;8.428;2022-11-15T13:49:36;15.00;99.90
46037;DHT22;31769;49.304;8.428;2022-11-15T13:52:40;15.00;99.90
46037;DHT22;31769;49.304;8.428;2022-11-15T13:55:43;15.00;99.90
46037;DHT22;31769;49.304;8.428;2022-11-15T13:58:44;15.00;99.90
46037;DHT22;31769;49.304;8.428;2022-11-15T14:01:45;15.00;99.90
46037;DHT22;31769;49.304;8.428;2022-11-15T14:04:58;15.00;99.90
46037;DHT22;31769;49.304;8.428;2022-11-15T14:08:21;15.00;99.90
46037;DHT22;31769;49.304;8.428;2022-11-15T14:11:23;14.90;99.90
46037;DHT22;31769;49.304;8.428;2022-11-15T14:14:25;14.80;99.90
46037;DHT22;31769;49.304;8.428;2022-11-15T14:20:36;14.80;99.90
46037;DHT22;31769;49.304;8.428;2022-11-15T14:23:38;14.80;99.90
46037;DHT22;31769;49.304;8.428;2022-11-15T14:26:39;14.80;99.90
46037;DHT22;31769;49.304;8.428;2022-11-15T14:29:39;14.90;99.90
46037;DHT22;31769;49.304;8.428;2022-11-15T14:32:44;14.90;99.90
46037;DHT22;31769;49.304;8.428;2022-11-15T14:35:45;14.80;99.90
46037;DHT22;31769;49.304;8.428;2022-11-15T14:38:47;14.70;99.90
46037;DHT22;31769;49.304;8.428;2022-11-15T14:41:47;14.70;99.90
46037;DHT22;31769;49.304;8.428;2022-11-15T14:44:48;14.60;99.90
46037;DHT22;31769;49.304;8.428;2022-11-15T14:47:49;14.60;99.90
46037;DHT22;31769;49.304;8.428;2022-11-15T14:50:50;14.60;99.90
46037;DHT22;31769;49.304;8.428;2022-11-15T14:53:50;14.50;99.90
46037;DHT22;31769;49.304;8.428;2022-11-15T14:56:51;14.40;99.90
46037;DHT22;31769;49.304;8.428;2022-11-15T14:59:52;14.30;99.90
46037;DHT22;31769;49.304;8.428;2022-11-15T15:02:53;14.30;99.90
46037;DHT22;31769;49.304;8.428;2022-11-15T15:05:54;14.20;99.90
46037;DHT22;31769;49.304;8.428;2022-11-15T15:08:57;14.20;99.90
46037;DHT22;31769;49.304;8.428;2022-11-15T15:11:57;14.10;99.90
46037;DHT22;31769;49.304;8.428;2022-11-15T15:14:58;14.10;99.90
46037;DHT22;31769;49.304;8.428;2022-11-15T15:17:58;14.00;99.90
46037;DHT22;31769;49.304;8.428;2022-11-15T15:21:00;14.00;99.90
46037;DHT22;31769;49.304;8.428;2022-11-15T15:24:03;14.00;99.90
46037;DHT22;31769;49.304;8.428;2022-11-15T15:27:04;13.90;99.90
46037;DHT22;31769;49.304;8.428;2022-11-15T15:30:05;13.90;99.90
46037;DHT22;31769;49.304;8.428;2022-11-15T15:33:06;13.80;99.90
46037;DHT22;31769;49.304;8.428;2022-11-15T15:36:17;13.80;99.90
46037;DHT22;31769;49.304;8.428;2022-11-15T15:39:18;13.70;99.90
46037;DHT22;31769;49.304;8.428;2022-11-15T15:42:20;13.70;99.90
46037;DHT22;31769;49.304;8.428;2022-11-15T15:45:21;13.70;99.90
46037;DHT22;31769;49.304;8.428;2022-11-15T15:48:21;13.60;99.90
46037;DHT22;31769;49.304;8.428;2022-11-15T15:51:22;13.70;99.90
46037;DHT22;31769;49.304;8.428;2022-11-15T15:54:23;13.60;99.90
46037;DHT22;31769;49.304;8.428;2022-11-15T15:57:23;13.60;99.90
46037;DHT22;31769;49.304;8.428;2022-11-15T16:00:25;13.60;99.90
46037;DHT22;31769;49.304;8.428;2022-11-15T16:03:25;13.60;99.90
46037;DHT22;31769;49.304;8.428;2022-11-15T16:06:33;13.50;99.90
46037;DHT22;31769;49.304;8.428;2022-11-15T16:09:34;13.50;99.90
46037;DHT22;31769;49.304;8.428;2022-11-15T16:12:54;13.50;99.90
46037;DHT22;31769;49.304;8.428;2022-11-15T16:15:56;13.50;99.90
46037;DHT22;31769;49.304;8.428;2022-11-15T16:18:56;13.50;99.90
46037;DHT22;31769;49.304;8.428;2022-11-15T16:21:57;13.50;99.90
46037;DHT22;31769;49.304;8.428;2022-11-15T16:24:58;13.40;99.90
46037;DHT22;31769;49.304;8.428;2022-11-15T16:27:58;13.40;99.90
46037;DHT22;31769;49.304;8.428;2022-11-15T16:34:01;13.40;99.90
46037;DHT22;31769;49.304;8.428;2022-11-15T16:37:02;13.40;99.90
46037;DHT22;31769;49.304;8.428;2022-11-15T16:40:03;13.40;99.90
46037;DHT22;31769;49.304;8.428;2022-11-15T16:43:04;13.40;99.90
46037;DHT22;31769;49.304;8.428;2022-11-15T16:46:14;13.40;99.90
46037;DHT22;31769;49.304;8.428;2022-11-15T16:49:16;13.40;99.90
46037;DHT22;31769;49.304;8.428;2022-11-15T16:52:17;13.40;99.90
46037;DHT22;31769;49.304;8.428;2022-11-15T16:55:18;13.30;99.90
46037;DHT22;31769;49.304;8.428;2022-11-15T16:58:20;13.40;99.90
46037;DHT22;31769;49.304;8.428;2022-11-15T17:01:25;13.30;99.90
46037;DHT22;31769;49.304;8.428;2022-11-15T17:04:26;13.30;99.90
46037;DHT22;31769;49.304;8.428;2022-11-15T17:07:32;13.30;99.90
46037;DHT22;31769;49.304;8.428;2022-11-15T17:10:33;13.30;99.90
46037;DHT22;31769;49.304;8.428;2022-11-15T17:13:33;13.30;99.90
46037;DHT22;31769;49.304;8.428;2022-11-15T17:16:34;13.30;99.90
46037;DHT22;31769;49.304;8.428;2022-11-15T17:19:37;13.20;99.90
46037;DHT22;31769;49.304;8.428;2022-11-15T17:22:41;13.20;99.90
46037;DHT22;31769;49.304;8.428;2022-11-15T17:25:42;13.20;99.90
46037;DHT22;31769;49.304;8.428;2022-11-15T17:28:43;13.20;99.90
46037;DHT22;31769;49.304;8.428;2022-11-15T17:31:43;13.20;99.90
46037;DHT22;31769;49.304;8.428;2022-11-15T17:34:44;13.20;99.90
46037;DHT22;31769;49.304;8.428;2022-11-15T17:37:45;13.20;99.90
46037;DHT22;31769;49.304;8.428;2022-11-15T17:40:47;13.20;99.90
46037;DHT22;31769;49.304;8.428;2022-11-15T17:43:48;13.20;99.90
46037;DHT22;31769;49.304;8.428;2022-11-15T17:46:49;13.20;99.90
46037;DHT22;31769;49.304;8.428;2022-11-15T17:49:50;13.20;99.90
46037;DHT22;31769;49.304;8.428;2022-11-15T17:52:50;13.20;99.90
46037;DHT22;31769;49.304;8.428;2022-11-15T17:55:51;13.20;99.90
46037;DHT22;31769;49.304;8.428;2022-11-15T17:58:55;13.20;99.90
46037;DHT22;31769;49.304;8.428;2022-11-15T18:01:56;13.20;99.90
46037;DHT22;31769;49.304;8.428;2022-11-15T18:04:57;13.20;99.90
46037;DHT22;31769;49.304;8.428;2022-11-15T18:07:57;13.20;99.90
46037;DHT22;31769;49.304;8.428;2022-11-15T18:11:11;13.20;99.90
46037;DHT22;31769;49.304;8.428;2022-11-15T18:14:13;13.20;99.90
46037;DHT22;31769;49.304;8.428;2022-11-15T18:17:14;13.20;99.90
46037;DHT22;31769;49.304;8.428;2022-11-15T18:20:15;13.20;99.90
46037;DHT22;31769;49.304;8.428;2022-11-15T18:23:16;13.20;99.90
46037;DHT22;31769;49.304;8.428;2022-11-15T18:26:17;13.10;99.90
46037;DHT22;31769;49.304;8.428;2022-11-15T18:29:18;13.10;99.90
46037;DHT22;31769;49.304;8.428;2022-11-15T18:32:19;13.10;99.90
46037;DHT22;31769;49.304;8.428;2022-11-15T18:35:20;13.10;99.90
46037;DHT22;31769;49.304;8.428;2022-11-15T18:38:21;13.10;99.90
46037;DHT22;31769;49.304;8.428;2022-11-15T18:41:22;13.20;99.90
46037;DHT22;31769;49.304;8.428;2022-11-15T18:44:30;13.20;99.90
46037;DHT22;31769;49.304;8.428;2022-11-15T18:47:31;13.20;99.90
46037;DHT22;31769;49.304;8.428;2022-11-15T18:50:32;13.20;99.90
46037;DHT22;31769;49.304;8.428;2022-11-15T18:53:33;13.10;99.90
46037;DHT22;31769;49.304;8.428;2022-11-15T18:56:34;13.10;99.90
46037;DHT22;31769;49.304;8.428;2022-11-15T18:59:34;13.00;99.90
46037;DHT22;31769;49.304;8.428;2022-11-15T19:02:35;13.10;99.90
46037;DHT22;31769;49.304;8.428;2022-11-15T19:05:36;13.10;99.90
46037;DHT22;31769;49.304;8.428;2022-11-15T19:08:37;13.00;99.90
46037;DHT22;31769;49.304;8.428;2022-11-15T19:11:39;13.00;99.90
46037;DHT22;31769;49.304;8.428;2022-11-15T19:14:39;13.00;99.90
46037;DHT22;31769;49.304;8.428;2022-11-15T19:17:40;13.00;99.90
46037;DHT22;31769;49.304;8.428;2022-11-15T19:20:41;12.90;99.90
46037;DHT22;31769;49.304;8.428;2022-11-15T19:23:42;12.90;99.90
46037;DHT22;31769;49.304;8.428;2022-11-15T19:26:42;12.90;99.90
46037;DHT22;31769;49.304;8.428;2022-11-15T19:29:44;13.00;99.90
46037;DHT22;31769;49.304;8.428;2022-11-15T19:32:45;13.00;99.90
46037;DHT22;31769;49.304;8.428;2022-11-15T19:35:46;13.00;99.90
46037;DHT22;31769;49.304;8.428;2022-11-15T19:38:47;12.90;99.90
46037;DHT22;31769;49.304;8.428;2022-11-15T19:41:47;12.90;99.90
46037;DHT22;31769;49.304;8.428;2022-11-15T19:44:49;12.80;99.90
46037;DHT22;31769;49.304;8.428;2022-11-15T19:47:50;12.70;99.90
46037;DHT22;31769;49.304;8.428;2022-11-15T19:50:51;12.70;99.90
46037;DHT22;31769;49.304;8.428;2022-11-15T19:53:53;12.60;99.90
46037;DHT22;31769;49.304;8.428;2022-11-15T19:56:54;12.60;99.90
46037;DHT22;31769;49.304;8.428;2022-11-15T19:59:56;12.60;99.90
46037;DHT22;31769;49.304;8.428;2022-11-15T20:02:57;12.60;99.90
46037;DHT22;31769;49.304;8.428;2022-11-15T20:06:08;12.60;99.90
46037;DHT22;31769;49.304;8.428;2022-11-15T20:09:14;12.60;99.90
46037;DHT22;31769;49.304;8.428;2022-11-15T20:12:15;12.60;99.90
46037;DHT22;31769;49.304;8.428;2022-11-15T20:15:15;12.70;99.90
46037;DHT22;31769;49.304;8.428;2022-11-15T20:18:16;12.60;99.90
46037;DHT22;31769;49.304;8.428;2022-11-15T20:21:17;12.70;99.90
46037;DHT22;31769;49.304;8.428;2022-11-15T20:24:19;12.70;99.90
46037;DHT22;31769;49.304;8.428;2022-11-15T20:27:19;12.70;99.90
46037;DHT22;31769;49.304;8.428;2022-11-15T20:30:20;12.70;99.90
46037;DHT22;31769;49.304;8.428;2022-11-15T20:33:21;12.70;99.90
46037;DHT22;31769;49.304;8.428;2022-11-15T20:36:23;12.70;99.90
46037;DHT22;31769;49.304;8.428;2022-11-15T20:39:23;12.70;99.90
46037;DHT22;31769;49.304;8.428;2022-11-15T20:42:24;12.70;99.90
46037;DHT22;31769;49.304;8.428;2022-11-15T20:45:25;12.70;99.90
46037;DHT22;31769;49.304;8.428;2022-11-15T20:48:26;12.70;99.90
46037;DHT22;31769;49.304;8.428;2022-11-15T20:51:26;12.70;99.90
46037;DHT22;31769;49.304;8.428;2022-11-15T20:54:27;12.70;99.90
46037;DHT22;31769;49.304;8.428;2022-11-15T20:57:28;12.60;99.90
46037;DHT22;31769;49.304;8.428;2022-11-15T21:00:28;12.60;99.90
46037;DHT22;31769;49.304;8.428;2022-11-15T21:03:29;12.50;99.90
46037;DHT22;31769;49.304;8.428;2022-11-15T22:42:09;11.90;99.90
46037;DHT22;31769;49.304;8.428;2022-11-15T22:51:12;11.60;99.90
46037;DHT22;31769;49.304;8.428;2022-11-15T22:57:14;11.40;99.90
46037;DHT22;31769;49.304;8.428;2022-11-15T23:00:15;11.70;99.90
46037;DHT22;31769;49.304;8.428;2022-11-15T23:12:20;11.90;99.90
46037;DHT22;31769;49.304;8.428;2022-11-15T23:19:10;11.90;99.90
46037;DHT22;31769;49.304;8.428;2022-11-15T23:22:11;11.90;99.90
46037;DHT22;31769;49.304;8.428;2022-11-15T23:25:30;11.90;99.90
46037;DHT22;31769;49.304;8.428;2022-11-15T23:28:32;11.80;99.90
46037;DHT22;31769;49.304;8.428;2022-11-15T23:31:33;11.80;99.90
46037;DHT22;31769;49.304;8.428;2022-11-15T23:34:52;11.80;99.90
46037;DHT22;31769;49.304;8.428;2022-11-15T23:37:53;11.80;99.90
46037;DHT22;31769;49.304;8.428;2022-11-15T23:40:54;11.70;99.90
46037;DHT22;31769;49.304;8.428;2022-11-15T23:43:55;11.70;99.90
46037;DHT22;31769;49.304;8.428;2022-11-15T23:46:55;11.70;99.90
46037;DHT22;31769;49.304;8.428;2022-11-15T23:49:56;11.90;99.90
46037;DHT22;31769;49.304;8.428;2022-11-15T23:52:57;12.10;99.90